createdAt,value
2022-11-21T00:00:30.531Z,88.38
2022-11-21T00:02:34.248Z,88.05
2022-11-21T00:04:38.204Z,88.33
2022-11-21T00:06:41.879Z,88.19
2022-11-21T00:08:47.008Z,88.26
2022-11-21T00:10:50.853Z,87.94
2022-11-21T00:12:56.397Z,87.91
2022-11-21T00:15:00.239Z,88.08
2022-11-21T00:17:03.663Z,87.81
2022-11-21T00:19:07.187Z,87.85
2022-11-21T00:21:14.738Z,87.72
2022-11-21T00:23:18.497Z,88.30
2022-11-21T00:25:23.489Z,88.19
2022-11-21T00:27:27.144Z,88.19
2022-11-21T00:29:30.751Z,88.61
2022-11-21T00:31:34.293Z,88.68
2022-11-21T00:33:39.301Z,88.60
2022-11-21T00:35:42.972Z,89.28
2022-11-21T00:37:48.795Z,88.75
2022-11-21T00:39:52.340Z,88.68
2022-11-21T00:41:57.282Z,88.75
2022-11-21T00:44:00.819Z,88.92
2022-11-21T00:46:04.649Z,89.34
2022-11-21T00:48:08.958Z,88.89
2022-11-21T00:50:12.469Z,89.13
2022-11-21T00:52:17.398Z,89.28
2022-11-21T00:54:20.910Z,89.79
2022-11-21T00:56:24.610Z,90.57
2022-11-21T00:58:29.744Z,91.14
2022-11-21T01:00:33.355Z,91.33
2022-11-21T01:02:37.041Z,91.21
2022-11-21T01:04:40.702Z,92.17
2022-11-21T01:06:44.081Z,92.11
2022-11-21T01:08:47.626Z,92.96
2022-11-21T01:10:51.228Z,94.34
2022-11-21T01:12:54.871Z,94.21
2022-11-21T01:14:59.935Z,95.04
2022-11-21T01:17:03.402Z,95.47
2022-11-21T01:19:07.094Z,96.46
2022-11-21T01:21:15.092Z,96.62
2022-11-21T01:23:18.692Z,97.06
2022-11-21T01:25:22.284Z,98.00
2022-11-21T01:27:26.094Z,98.01
2022-11-21T01:29:29.978Z,98.38
2022-11-21T01:31:35.090Z,98.87
2022-11-21T01:33:39.441Z,99.83
2022-11-21T01:35:42.882Z,100.00
2022-11-21T01:37:48.862Z,100.00
2022-11-21T01:39:52.402Z,100.00
2022-11-21T01:41:56.055Z,100.00
2022-11-21T01:43:59.800Z,100.00
2022-11-21T01:46:08.064Z,100.00
2022-11-21T01:48:13.296Z,100.00
2022-11-21T01:50:16.944Z,100.00
2022-11-21T01:52:24.938Z,100.00
2022-11-21T01:54:33.012Z,100.00
2022-11-21T01:56:42.334Z,100.00
2022-11-21T01:58:48.530Z,100.00
2022-11-21T02:00:52.427Z,100.00
2022-11-21T02:03:01.008Z,100.00
2022-11-21T02:05:10.270Z,100.00
2022-11-21T02:07:16.258Z,100.00
2022-11-21T02:09:20.568Z,100.00
2022-11-21T02:11:31.971Z,100.00
2022-11-21T02:13:35.596Z,100.00
2022-11-21T02:15:39.540Z,100.00
2022-11-21T02:17:43.085Z,100.00
2022-11-21T02:19:53.953Z,100.00
2022-11-21T02:22:07.545Z,100.00
2022-11-21T02:24:18.848Z,100.00
2022-11-21T02:26:23.912Z,100.00
2022-11-21T02:28:27.758Z,100.00
2022-11-21T02:30:33.554Z,100.00
2022-11-21T02:32:39.343Z,100.00
2022-11-21T02:34:42.999Z,100.00
2022-11-21T02:36:48.880Z,100.00
2022-11-21T02:38:52.488Z,100.00
2022-11-21T02:41:03.627Z,100.00
2022-11-21T02:43:14.692Z,100.00
2022-11-21T02:45:23.171Z,100.00
2022-11-21T02:47:27.753Z,100.00
2022-11-21T02:49:39.524Z,100.00
2022-11-21T02:51:43.261Z,100.00
2022-11-21T02:53:46.998Z,100.00
2022-11-21T02:55:50.739Z,100.00
2022-11-21T02:57:54.596Z,100.00
2022-11-21T03:00:00.098Z,100.00
2022-11-21T03:02:03.823Z,100.00
2022-11-21T03:04:07.328Z,100.00
2022-11-21T03:06:10.973Z,100.00
2022-11-21T03:08:14.414Z,100.00
2022-11-21T03:10:18.964Z,100.00
2022-11-21T03:12:22.511Z,100.00
2022-11-21T03:14:26.492Z,100.00
2022-11-21T03:16:31.349Z,100.00
2022-11-21T03:18:34.564Z,100.00
2022-11-21T03:20:37.841Z,100.00
2022-11-21T03:22:41.067Z,100.00
2022-11-21T03:24:44.322Z,100.00
2022-11-21T03:26:47.663Z,100.00
2022-11-21T03:28:50.995Z,100.00
2022-11-21T03:30:54.180Z,100.00
2022-11-21T03:32:59.592Z,100.00
2022-11-21T03:35:03.027Z,100.00
2022-11-21T03:37:07.965Z,100.00
2022-11-21T03:39:11.358Z,100.00
2022-11-21T03:41:28.522Z,100.00
2022-11-21T03:43:31.746Z,100.00
2022-11-21T03:45:34.996Z,100.00
2022-11-21T03:47:38.260Z,100.00
2022-11-21T03:49:42.927Z,100.00
2022-11-21T03:51:46.652Z,100.00
2022-11-21T03:53:50.229Z,100.00
2022-11-21T03:55:53.461Z,100.00
2022-11-21T03:57:56.842Z,100.00
2022-11-21T04:00:00.028Z,100.00
2022-11-21T04:02:03.436Z,100.00
2022-11-21T04:04:07.023Z,100.00
2022-11-21T04:06:12.631Z,100.00
2022-11-21T04:08:16.932Z,100.00
2022-11-21T04:10:21.064Z,100.00
2022-11-21T04:12:24.749Z,100.00
2022-11-21T04:14:28.139Z,100.00
2022-11-21T04:16:31.553Z,100.00
2022-11-21T04:18:35.717Z,100.00
2022-11-21T04:20:39.933Z,100.00
2022-11-21T04:22:44.821Z,100.00
2022-11-21T04:24:48.078Z,100.00
2022-11-21T04:26:51.324Z,100.00
2022-11-21T04:28:54.529Z,100.00
2022-11-21T04:31:05.782Z,100.00
2022-11-21T04:33:13.561Z,100.00
2022-11-21T04:35:16.993Z,100.00
2022-11-21T04:37:20.345Z,100.00
2022-11-21T04:39:24.990Z,100.00
2022-11-21T04:41:28.273Z,100.00
2022-11-21T04:43:31.474Z,100.00
2022-11-21T04:45:34.920Z,100.00
2022-11-21T04:47:38.547Z,100.00
2022-11-21T04:49:41.852Z,100.00
2022-11-21T04:51:45.095Z,100.00
2022-11-21T04:53:48.546Z,100.00
2022-11-21T04:55:53.219Z,100.00
2022-11-21T04:57:56.588Z,100.00
2022-11-21T05:00:00.058Z,100.00
2022-11-21T05:02:04.416Z,100.00
2022-11-21T05:04:07.702Z,100.00
2022-11-21T05:06:10.931Z,100.00
2022-11-21T05:08:14.199Z,100.00
2022-11-21T05:10:17.529Z,100.00
2022-11-21T05:12:39.699Z,100.00
2022-11-21T05:14:42.953Z,100.00
2022-11-21T05:16:46.155Z,100.00
2022-11-21T05:18:49.424Z,100.00
2022-11-21T05:20:52.668Z,100.00
2022-11-21T05:22:55.998Z,100.00
2022-11-21T05:24:59.208Z,100.00
2022-11-21T05:27:02.533Z,100.00
2022-11-21T05:29:07.388Z,100.00
2022-11-21T05:31:10.666Z,100.00
2022-11-21T05:33:13.911Z,100.00
2022-11-21T05:35:17.147Z,100.00
2022-11-21T05:37:22.029Z,100.00
2022-11-21T05:39:25.252Z,100.00
2022-11-21T05:41:28.557Z,100.00
2022-11-21T05:43:49.114Z,100.00
2022-11-21T05:45:54.287Z,100.00
2022-11-21T05:47:57.562Z,100.00
2022-11-21T05:50:00.915Z,100.00
2022-11-21T05:52:04.113Z,100.00
2022-11-21T05:54:07.571Z,100.00
2022-11-21T05:56:12.126Z,100.00
2022-11-21T05:58:15.442Z,100.00
2022-11-21T06:00:19.605Z,100.00
2022-11-21T06:02:41.567Z,100.00
2022-11-21T06:04:44.876Z,100.00
2022-11-21T06:06:48.352Z,100.00
2022-11-21T06:08:51.592Z,100.00
2022-11-21T06:10:55.102Z,100.00
2022-11-21T06:13:01.201Z,100.00
2022-11-21T06:15:04.905Z,100.00
2022-11-21T06:17:08.197Z,100.00
2022-11-21T06:19:12.833Z,100.00
2022-11-21T06:21:18.103Z,100.00
2022-11-21T06:23:21.700Z,100.00
2022-11-21T06:25:24.941Z,100.00
2022-11-21T06:27:29.745Z,100.00
2022-11-21T06:29:33.002Z,100.00
2022-11-21T06:31:36.286Z,100.00
2022-11-21T06:33:40.568Z,100.00
2022-11-21T06:35:45.600Z,100.00
2022-11-21T06:37:53.385Z,100.00
2022-11-21T06:39:57.055Z,100.00
2022-11-21T06:42:00.328Z,100.00
2022-11-21T06:44:03.542Z,100.00
2022-11-21T06:46:06.791Z,100.00
2022-11-21T06:48:10.141Z,100.00
2022-11-21T06:50:13.301Z,100.00
2022-11-21T06:52:17.985Z,100.00
2022-11-21T06:54:21.328Z,100.00
2022-11-21T06:56:24.893Z,100.00
2022-11-21T06:58:28.366Z,100.00
2022-11-21T07:00:31.574Z,100.00
2022-11-21T07:02:34.951Z,100.00
2022-11-21T07:04:38.171Z,100.00
2022-11-21T07:06:41.520Z,100.00
2022-11-21T07:08:46.335Z,100.00
2022-11-21T07:11:17.834Z,100.00
2022-11-21T07:13:25.208Z,100.00
2022-11-21T07:15:28.520Z,100.00
2022-11-21T07:17:31.885Z,100.00
2022-11-21T07:19:38.473Z,100.00
2022-11-21T07:21:44.360Z,100.00
2022-11-21T07:23:49.012Z,100.00
2022-11-21T07:25:52.312Z,100.00
2022-11-21T07:27:55.925Z,100.00
2022-11-21T07:29:59.187Z,100.00
2022-11-21T07:32:02.609Z,100.00
2022-11-21T07:34:05.774Z,100.00
2022-11-21T07:36:09.158Z,100.00
2022-11-21T07:38:12.954Z,100.00
2022-11-21T07:40:18.401Z,100.00
2022-11-21T07:42:21.570Z,100.00
2022-11-21T07:44:24.779Z,100.00
2022-11-21T07:46:28.004Z,100.00
2022-11-21T07:48:31.218Z,100.00
2022-11-21T07:50:34.752Z,100.00
2022-11-21T07:52:38.324Z,100.00
2022-11-21T07:54:41.581Z,100.00
2022-11-21T07:56:46.239Z,100.00
2022-11-21T07:58:49.498Z,100.00
2022-11-21T08:00:53.554Z,100.00
2022-11-21T08:02:57.405Z,100.00
2022-11-21T08:05:01.331Z,100.00
2022-11-21T08:07:05.027Z,100.00
2022-11-21T08:09:08.287Z,100.00
2022-11-21T08:11:11.645Z,100.00
2022-11-21T08:13:16.575Z,100.00
2022-11-21T08:15:19.992Z,100.00
2022-11-21T08:17:23.263Z,100.00
2022-11-21T08:19:26.771Z,100.00
2022-11-21T08:21:31.556Z,100.00
2022-11-21T08:23:34.984Z,100.00
2022-11-21T08:25:39.536Z,100.00
2022-11-21T08:27:43.409Z,100.00
2022-11-21T08:29:48.321Z,100.00
2022-11-21T08:31:51.533Z,100.00
2022-11-21T08:33:57.433Z,100.00
2022-11-21T08:36:00.755Z,100.00
2022-11-21T08:38:04.100Z,100.00
2022-11-21T08:40:08.917Z,100.00
2022-11-21T08:42:11.138Z,100.00
2022-11-21T08:44:14.521Z,100.00
2022-11-21T08:46:19.174Z,100.00
2022-11-21T08:48:22.465Z,100.00
2022-11-21T08:50:26.324Z,100.00
2022-11-21T08:52:30.071Z,100.00
2022-11-21T08:54:33.681Z,100.00
2022-11-21T08:56:37.267Z,100.00
2022-11-21T08:58:40.865Z,100.00
2022-11-21T09:00:44.567Z,100.00
2022-11-21T09:02:49.536Z,100.00
2022-11-21T09:04:53.710Z,100.00
2022-11-21T09:06:57.942Z,100.00
2022-11-21T09:09:02.116Z,100.00
2022-11-21T09:11:07.043Z,100.00
2022-11-21T09:13:10.858Z,100.00
2022-11-21T09:15:31.684Z,100.00
2022-11-21T09:17:52.888Z,100.00
2022-11-21T09:19:58.028Z,100.00
2022-11-21T09:22:01.913Z,100.00
2022-11-21T09:24:05.934Z,100.00
2022-11-21T09:26:09.533Z,100.00
2022-11-21T09:28:14.320Z,100.00
2022-11-21T09:30:17.813Z,100.00
2022-11-21T09:32:21.463Z,100.00
2022-11-21T09:34:25.445Z,100.00
2022-11-21T09:36:30.535Z,100.00
2022-11-21T09:38:34.150Z,100.00
2022-11-21T09:40:38.105Z,100.00
2022-11-21T09:43:16.559Z,100.00
2022-11-21T09:45:26.490Z,100.00
2022-11-21T09:47:31.754Z,100.00
2022-11-21T09:49:41.632Z,100.00
2022-11-21T09:51:47.412Z,100.00
2022-11-21T09:53:58.567Z,100.00
2022-11-21T09:56:07.943Z,100.00
2022-11-21T09:58:20.793Z,100.00
2022-11-21T10:00:26.207Z,100.00
2022-11-21T10:02:30.466Z,100.00
2022-11-21T10:04:34.374Z,100.00
2022-11-21T10:06:44.000Z,100.00
2022-11-21T10:08:58.619Z,100.00
2022-11-21T10:11:19.393Z,100.00
2022-11-21T10:13:39.859Z,100.00
2022-11-21T10:15:57.848Z,100.00
2022-11-21T10:18:25.172Z,100.00
2022-11-21T10:20:38.819Z,100.00
2022-11-21T10:23:06.593Z,100.00
2022-11-21T10:25:15.737Z,100.00
2022-11-21T10:27:26.368Z,100.00
2022-11-21T10:29:36.609Z,100.00
2022-11-21T10:31:42.686Z,100.00
2022-11-21T10:33:47.210Z,100.00
2022-11-21T10:35:55.385Z,100.00
2022-11-21T10:38:03.019Z,100.00
2022-11-21T10:40:22.551Z,100.00
2022-11-21T10:42:40.888Z,100.00
2022-11-21T10:45:02.863Z,100.00
2022-11-21T10:47:15.764Z,100.00
2022-11-21T10:49:19.328Z,100.00
2022-11-21T10:51:37.278Z,100.00
2022-11-21T10:54:03.220Z,100.00
2022-11-21T10:56:14.494Z,100.00
2022-11-21T10:58:20.309Z,100.00
2022-11-21T11:00:26.794Z,100.00
2022-11-21T11:02:31.270Z,100.00
2022-11-21T11:04:45.654Z,100.00
2022-11-21T11:06:51.608Z,100.00
2022-11-21T11:08:55.261Z,100.00
2022-11-21T11:11:08.291Z,100.00
2022-11-21T11:13:50.887Z,100.00
2022-11-21T11:15:58.152Z,100.00
2022-11-21T11:18:09.192Z,100.00
2022-11-21T11:20:36.717Z,100.00
2022-11-21T11:22:40.352Z,100.00
2022-11-21T11:24:57.610Z,100.00
2022-11-21T11:27:05.164Z,100.00
2022-11-21T11:29:18.394Z,100.00
2022-11-21T11:31:21.933Z,100.00
2022-11-21T11:33:34.028Z,100.00
2022-11-21T11:35:38.938Z,100.00
2022-11-21T11:37:44.059Z,100.00
2022-11-21T11:39:57.587Z,100.00
2022-11-21T11:42:47.320Z,100.00
2022-11-21T11:45:23.959Z,100.00
2022-11-21T11:47:33.676Z,100.00
2022-11-21T11:49:55.312Z,100.00
2022-11-21T11:52:03.976Z,100.00
2022-11-21T11:54:15.003Z,100.00
2022-11-21T11:56:22.801Z,100.00
2022-11-21T11:58:30.725Z,100.00
2022-11-21T12:00:45.124Z,100.00
2022-11-21T12:02:58.764Z,100.00
2022-11-21T12:05:08.641Z,100.00
2022-11-21T12:09:53.702Z,100.00
2022-11-21T12:12:07.640Z,100.00
2022-11-21T12:14:41.085Z,100.00
2022-11-21T12:16:45.385Z,100.00
2022-11-21T12:18:57.281Z,100.00
2022-11-21T12:21:10.170Z,100.00
2022-11-21T12:23:15.467Z,100.00
2022-11-21T12:25:22.492Z,100.00
2022-11-21T12:27:32.578Z,100.00
2022-11-21T12:29:50.243Z,100.00
2022-11-21T12:32:14.734Z,100.00
2022-11-21T12:34:35.767Z,100.00
2022-11-21T12:36:47.446Z,100.00
2022-11-21T12:39:09.390Z,100.00
2022-11-21T12:41:38.601Z,100.00
2022-11-21T12:43:56.101Z,100.00
2022-11-21T12:46:11.707Z,100.00
2022-11-21T12:48:59.044Z,100.00
2022-11-21T12:51:41.233Z,100.00
2022-11-21T12:54:10.910Z,100.00
2022-11-21T12:56:29.798Z,100.00
2022-11-21T12:58:38.314Z,100.00
2022-11-21T13:00:53.310Z,100.00
2022-11-21T13:03:33.528Z,100.00
2022-11-21T13:05:42.271Z,100.00
2022-11-21T13:07:47.995Z,100.00
2022-11-21T13:09:55.282Z,100.00
2022-11-21T13:12:05.131Z,100.00
2022-11-21T13:14:17.252Z,100.00
2022-11-21T13:16:37.081Z,100.00
2022-11-21T13:18:45.541Z,100.00
2022-11-21T13:20:50.837Z,100.00
2022-11-21T13:22:58.128Z,100.00
2022-11-21T13:25:03.251Z,100.00
2022-11-21T13:27:10.076Z,100.00
2022-11-21T13:29:14.808Z,100.00
2022-11-21T13:31:33.165Z,100.00
2022-11-21T13:33:48.938Z,100.00
2022-11-21T13:36:01.309Z,100.00
2022-11-21T13:38:08.634Z,100.00
2022-11-21T13:40:36.902Z,100.00
2022-11-21T13:43:36.191Z,100.00
2022-11-21T13:45:43.850Z,98.43
2022-11-21T13:48:18.755Z,98.47
2022-11-21T13:50:33.032Z,97.82
2022-11-21T13:52:47.023Z,96.24
2022-11-21T13:55:26.829Z,96.69
2022-11-21T13:57:56.879Z,96.16
2022-11-21T14:00:25.187Z,96.70
2022-11-21T14:02:57.833Z,96.35
2022-11-21T14:05:37.137Z,95.58
2022-11-21T14:07:42.717Z,95.29
2022-11-21T14:09:50.837Z,95.33
2022-11-21T14:11:59.733Z,93.68
2022-11-21T14:14:04.099Z,92.74
2022-11-21T14:16:24.320Z,93.60
2022-11-21T14:18:28.638Z,93.69
2022-11-21T14:20:37.683Z,93.48
2022-11-21T14:22:45.734Z,92.85
2022-11-21T14:24:49.639Z,92.26
2022-11-21T14:26:54.726Z,91.91
2022-11-21T14:29:18.652Z,91.99
2022-11-21T14:31:22.343Z,91.87
2022-11-21T14:33:33.553Z,91.79
2022-11-21T14:35:37.328Z,90.88
2022-11-21T14:37:43.512Z,90.92
2022-11-21T14:39:54.060Z,91.00
2022-11-21T14:42:02.088Z,90.87
2022-11-21T14:44:18.336Z,90.15
2022-11-21T14:46:22.982Z,89.96
2022-11-21T14:48:31.365Z,89.42
2022-11-21T14:50:36.620Z,88.82
2022-11-21T14:52:40.729Z,88.65
2022-11-21T14:55:06.763Z,89.03
2022-11-21T14:57:22.300Z,89.65
2022-11-21T14:59:28.122Z,89.56
2022-11-21T15:01:34.430Z,89.26
2022-11-21T15:03:39.126Z,89.91
2022-11-21T15:08:33.541Z,89.96
2022-11-21T15:10:35.704Z,90.09
2022-11-21T15:12:52.100Z,90.48
2022-11-21T15:15:02.371Z,90.41
2022-11-21T15:17:10.530Z,90.61
2022-11-21T15:19:28.400Z,90.35
2022-11-21T15:21:33.252Z,90.69
2022-11-21T15:23:39.060Z,91.33
2022-11-21T15:25:47.746Z,91.52
2022-11-21T15:27:52.437Z,91.77
2022-11-21T15:30:08.412Z,90.73
2022-11-21T15:34:38.528Z,90.98
2022-11-21T15:36:42.198Z,90.85
2022-11-21T15:38:52.135Z,90.95
2022-11-21T15:41:27.186Z,90.87
2022-11-21T15:43:42.964Z,91.50
2022-11-21T15:45:48.395Z,91.58
2022-11-21T15:47:52.263Z,91.58
2022-11-21T15:49:56.322Z,92.08
2022-11-21T15:52:09.504Z,92.20
2022-11-21T15:54:16.346Z,92.38
2022-11-21T15:56:23.268Z,92.56
2022-11-21T15:57:12.493Z,90.10
2022-11-21T15:58:27.116Z,92.65
2022-11-21T16:00:30.842Z,92.76
2022-11-21T16:02:36.030Z,92.93
2022-11-21T16:04:39.622Z,93.38
2022-11-21T16:06:43.419Z,93.66
2022-11-21T16:08:47.185Z,93.76
2022-11-21T16:10:53.688Z,94.39
2022-11-21T16:12:57.525Z,94.63
2022-11-21T16:15:01.581Z,94.94
2022-11-21T16:17:05.449Z,95.01
2022-11-21T16:19:12.498Z,94.78
2022-11-21T16:21:16.527Z,95.12
2022-11-21T16:23:20.669Z,95.31
2022-11-21T16:25:24.647Z,95.60
2022-11-21T16:27:28.600Z,95.92
2022-11-21T16:29:32.495Z,96.01
2022-11-21T16:31:36.312Z,96.17
2022-11-21T16:33:41.195Z,96.37
2022-11-21T16:35:47.164Z,96.46
2022-11-21T16:37:52.444Z,96.84
2022-11-21T16:39:56.410Z,96.75
2022-11-21T16:42:00.464Z,96.93
2022-11-21T16:44:05.017Z,97.08
2022-11-21T16:46:12.298Z,96.91
2022-11-21T16:48:29.037Z,96.85
2022-11-21T16:50:34.206Z,97.51
2022-11-21T16:52:58.611Z,97.57
2022-11-21T16:55:14.364Z,97.11
2022-11-21T16:57:24.521Z,96.97
2022-11-21T16:59:35.227Z,97.37
2022-11-21T17:01:41.859Z,97.01
2022-11-21T17:03:55.316Z,97.31
2022-11-21T17:06:09.957Z,97.54
2022-11-21T17:08:15.216Z,97.18
2022-11-21T17:10:19.103Z,97.35
2022-11-21T17:12:26.054Z,96.90
2022-11-21T17:14:30.375Z,97.45
2022-11-21T17:16:38.019Z,97.41
2022-11-21T17:18:45.718Z,97.22
2022-11-21T17:20:52.807Z,97.16
2022-11-21T17:22:57.600Z,96.83
2022-11-21T17:25:03.268Z,97.09
2022-11-21T17:27:06.948Z,96.90
2022-11-21T17:29:13.588Z,96.65
2022-11-21T17:31:18.064Z,96.88
2022-11-21T17:33:22.152Z,96.81
2022-11-21T17:35:33.859Z,96.92
2022-11-21T17:38:16.450Z,96.72
2022-11-21T17:40:29.958Z,96.63
2022-11-21T17:42:43.564Z,96.62
2022-11-21T17:44:50.649Z,96.40
2022-11-21T17:47:13.144Z,96.73
2022-11-21T17:49:17.679Z,96.25
2022-11-21T17:51:28.774Z,96.58
2022-11-21T17:53:34.843Z,96.54
2022-11-21T17:55:44.277Z,96.59
2022-11-21T17:58:00.417Z,96.46
2022-11-21T18:00:04.605Z,96.54
2022-11-21T18:02:11.790Z,96.60
2022-11-21T18:04:18.363Z,96.45
2022-11-21T18:06:42.177Z,96.33
2022-11-21T18:08:53.569Z,96.70
2022-11-21T18:11:04.487Z,96.69
2022-11-21T18:13:19.111Z,96.51
2022-11-21T18:15:29.287Z,96.64
2022-11-21T18:18:30.953Z,96.60
2022-11-21T18:21:13.436Z,96.98
2022-11-21T18:23:44.154Z,96.58
2022-11-21T18:26:30.148Z,96.78
2022-11-21T18:31:13.653Z,96.73
2022-11-21T18:33:48.740Z,97.14
2022-11-21T18:36:11.315Z,97.07
2022-11-21T18:38:47.710Z,97.28
2022-11-21T18:41:07.483Z,97.26
2022-11-21T18:43:38.047Z,97.10
2022-11-21T18:45:47.003Z,97.07
2022-11-21T18:47:54.139Z,97.40
2022-11-21T18:50:04.741Z,97.08
2022-11-21T18:52:57.245Z,97.20
2022-11-21T18:55:20.440Z,97.37
2022-11-21T18:57:44.775Z,97.26
2022-11-21T19:00:31.593Z,96.76
2022-11-21T19:05:47.010Z,96.69
2022-11-21T19:08:01.581Z,96.75
2022-11-21T19:13:16.642Z,96.50
2022-11-21T19:15:56.692Z,96.63
2022-11-21T19:18:02.446Z,96.56
2022-11-21T19:20:07.100Z,96.25
2022-11-21T19:22:10.726Z,96.30
2022-11-21T19:24:19.760Z,96.03
2022-11-21T19:26:35.189Z,95.92
2022-11-21T19:29:32.653Z,95.78
2022-11-21T19:32:01.739Z,95.81
2022-11-21T19:34:07.653Z,96.00
2022-11-21T19:36:21.896Z,95.95
2022-11-21T19:39:34.659Z,95.90
2022-11-21T19:44:33.401Z,95.90
2022-11-21T19:46:46.826Z,95.69
2022-11-21T19:48:53.115Z,95.76
2022-11-21T19:50:59.610Z,95.82
2022-11-21T19:53:07.837Z,95.52
2022-11-21T19:55:14.807Z,96.24
2022-11-21T19:57:18.663Z,95.65
2022-11-21T19:59:22.912Z,95.86
2022-11-21T20:01:28.387Z,96.35
2022-11-21T20:03:33.804Z,96.36
2022-11-21T20:05:37.719Z,96.32
2022-11-21T20:07:42.425Z,96.73
2022-11-21T20:09:46.631Z,96.86
2022-11-21T20:11:52.494Z,96.83
2022-11-21T20:13:57.977Z,97.03
2022-11-21T20:16:02.157Z,96.77
2022-11-21T20:18:06.276Z,97.17
2022-11-21T20:20:12.864Z,97.81
2022-11-21T20:22:16.501Z,97.73
2022-11-21T20:24:23.341Z,98.04
2022-11-21T20:26:27.866Z,98.11
2022-11-21T20:28:33.161Z,98.23
2022-11-21T20:30:37.770Z,98.52
2022-11-21T20:32:41.793Z,97.97
2022-11-21T20:34:47.039Z,98.50
2022-11-21T20:36:52.777Z,98.25
2022-11-21T20:38:58.326Z,98.43
2022-11-21T20:41:01.944Z,98.84
2022-11-21T20:43:05.637Z,98.68
2022-11-21T20:46:07.185Z,98.72
2022-11-21T20:47:40.691Z,98.85
2022-11-21T20:49:46.015Z,99.11
2022-11-21T20:54:17.585Z,99.25
2022-11-21T20:56:22.006Z,99.27
2022-11-21T20:58:26.314Z,99.39
2022-11-21T21:00:30.418Z,99.60
2022-11-21T21:02:35.499Z,99.81
2022-11-21T21:04:39.255Z,99.64
2022-11-21T21:06:44.008Z,99.86
2022-11-21T21:08:49.315Z,99.58
2022-11-21T21:11:06.045Z,100.00
2022-11-21T21:13:10.828Z,100.00
2022-11-21T21:15:15.120Z,99.98
2022-11-21T21:17:19.187Z,100.00
2022-11-21T21:19:24.027Z,100.00
2022-11-21T21:21:30.865Z,99.93
2022-11-21T21:23:37.179Z,100.00
2022-11-21T21:25:43.051Z,100.00
2022-11-21T21:27:51.377Z,100.00
2022-11-21T21:29:55.424Z,100.00
2022-11-21T21:32:00.285Z,100.00
2022-11-21T21:34:03.942Z,100.00
2022-11-21T21:36:09.763Z,100.00
2022-11-21T21:38:13.602Z,100.00
2022-11-21T21:40:22.319Z,100.00
2022-11-21T21:42:26.048Z,100.00
2022-11-21T21:44:33.459Z,100.00
2022-11-21T21:46:37.653Z,100.00
2022-11-21T21:48:42.339Z,100.00
2022-11-21T21:50:45.991Z,100.00
2022-11-21T21:52:49.671Z,100.00
2022-11-21T21:54:53.691Z,100.00
2022-11-21T21:56:57.789Z,100.00
2022-11-21T21:59:01.950Z,100.00
2022-11-21T22:01:10.064Z,100.00
2022-11-21T22:03:13.706Z,100.00
2022-11-21T22:05:18.013Z,100.00
2022-11-21T22:07:21.719Z,100.00
2022-11-21T22:09:25.544Z,100.00
2022-11-21T22:11:31.136Z,100.00
2022-11-21T22:13:36.262Z,100.00
2022-11-21T22:15:39.846Z,100.00
2022-11-21T22:17:47.774Z,100.00
2022-11-21T22:19:51.447Z,100.00
2022-11-21T22:21:55.355Z,100.00
2022-11-21T22:26:22.812Z,100.00
2022-11-21T22:28:27.835Z,100.00
2022-11-21T22:30:31.486Z,100.00
2022-11-21T22:32:35.218Z,100.00
2022-11-21T22:34:41.426Z,100.00
2022-11-21T22:36:47.227Z,100.00
2022-11-21T22:38:54.501Z,100.00
2022-11-21T22:41:03.420Z,100.00
2022-11-21T22:43:07.506Z,100.00
2022-11-21T22:45:11.833Z,100.00
2022-11-21T22:47:15.599Z,100.00
2022-11-21T22:49:20.522Z,100.00
2022-11-21T22:51:29.826Z,100.00
2022-11-21T22:53:39.777Z,100.00
2022-11-21T22:55:50.385Z,100.00
2022-11-21T22:57:54.313Z,100.00
2022-11-21T23:00:11.865Z,100.00
2022-11-21T23:02:15.473Z,100.00
2022-11-21T23:04:21.293Z,100.00
2022-11-21T23:06:31.526Z,100.00
2022-11-21T23:08:52.534Z,100.00
2022-11-21T23:11:04.519Z,100.00
2022-11-21T23:13:16.107Z,100.00
2022-11-21T23:15:30.282Z,100.00
2022-11-21T23:17:37.832Z,100.00
2022-11-21T23:19:49.017Z,100.00
2022-11-21T23:21:56.211Z,100.00
2022-11-21T23:24:01.141Z,100.00
2022-11-21T23:26:14.972Z,100.00
2022-11-21T23:28:30.917Z,100.00
2022-11-21T23:30:37.783Z,100.00
2022-11-21T23:32:44.859Z,100.00
2022-11-21T23:34:57.372Z,100.00
2022-11-21T23:37:06.993Z,100.00
2022-11-21T23:39:11.838Z,100.00
2022-11-21T23:41:20.982Z,100.00
2022-11-21T23:43:30.039Z,100.00
2022-11-21T23:45:43.046Z,100.00
2022-11-21T23:47:49.052Z,100.00
2022-11-21T23:49:58.267Z,100.00
2022-11-21T23:52:06.181Z,100.00
2022-11-21T23:54:11.586Z,100.00
2022-11-21T23:56:16.342Z,100.00
2022-11-21T23:58:21.192Z,100.00
